Time;durP1;ratioP1;P1;durP2;ratioP2;P2;SDS_P1;SDS_P2;PMS_P1;PMS_P2;Temp;Humidity;BMP_temperature;BMP_pressure;BME280_temperature;BME280_humidity;BME280_pressure;Samples;Min_cycle;Max_cycle;Signal;HPM_P1;HPM_P2
2021/12/16 00:02:10;;;;;;;2.25;1.30;;;20.60;53.50;;;;;;5020995;28;20036;-41
2021/12/16 00:07:50;;;;;;;2.03;1.77;;;20.60;53.50;;;;;;4945642;29;20039;-40
2021/12/16 00:10:35;;;;;;;2.10;1.35;;;20.60;53.60;;;;;;4951573;29;20130;-39
2021/12/16 00:34:52;;;;;;;1.95;1.75;;;20.70;53.80;;;;;;4950972;29;20102;-39
2021/12/16 00:37:18;;;;;;;3.30;1.80;;;20.70;53.70;;;;;;4947523;29;20060;-40
2021/12/16 00:39:45;;;;;;;1.77;1.55;;;20.70;53.60;;;;;;4952989;29;20038;-40
2021/12/16 00:47:31;;;;;;;2.20;1.83;;;20.60;53.60;;;;;;5022084;28;20026;-39
2021/12/16 00:55:45;;;;;;;2.30;1.67;;;20.60;53.80;;;;;;5022355;28;20049;-40
2021/12/16 00:58:12;;;;;;;2.05;1.70;;;20.60;53.80;;;;;;5021978;28;20061;-40
2021/12/16 01:00:39;;;;;;;2.00;1.77;;;20.70;53.70;;;;;;5021479;28;20034;-40
2021/12/16 01:03:45;;;;;;;2.05;1.80;;;20.70;53.60;;;;;;5022116;28;20033;-41
2021/12/16 01:52:11;;;;;;;3.75;1.40;;;20.50;53.70;;;;;;5024356;28;20018;-39
2021/12/16 01:54:49;;;;;;;1.92;1.45;;;20.50;53.80;;;;;;5024724;28;20044;-41
2021/12/16 01:57:18;;;;;;;2.30;1.63;;;20.60;53.80;;;;;;5018689;28;20052;-39
2021/12/16 01:59:47;;;;;;;1.77;1.33;;;20.60;53.80;;;;;;5024924;28;20053;-39
2021/12/16 02:02:40;;;;;;;3.00;1.55;;;20.60;53.80;;;;;;5023926;28;20766;-39
2021/12/16 02:05:40;;;;;;;2.13;1.33;;;20.60;53.70;;;;;;5024964;28;20034;-40
2021/12/16 02:08:19;;;;;;;1.50;1.30;;;20.60;53.80;;;;;;5007358;28;20026;-41
2021/12/16 02:10:53;;;;;;;1.80;1.40;;;20.50;53.70;;;;;;5005330;28;20122;-40
2021/12/16 02:32:34;;;;;;;1.50;1.30;;;20.50;53.80;;;;;;5024317;28;20711;-39
2021/12/16 02:37:32;;;;;;;2.28;1.63;;;20.40;53.90;;;;;;5024620;28;20034;-39
2021/12/16 02:39:59;;;;;;;1.73;1.30;;;20.50;53.90;;;;;;5019565;28;20030;-39
2021/12/16 02:42:35;;;;;;;1.47;1.30;;;20.60;53.90;;;;;;5016689;28;20038;-40
2021/12/16 02:50:18;;;;;;;1.70;1.20;;;20.60;53.80;;;;;;5023816;28;20091;-39
2021/12/16 02:52:45;;;;;;;1.65;1.30;;;20.50;53.80;;;;;;4999109;28;20049;-40
2021/12/16 02:55:12;;;;;;;1.83;1.30;;;20.40;53.80;;;;;;5018399;28;20109;-39
2021/12/16 02:57:46;;;;;;;2.08;1.55;;;20.50;53.90;;;;;;5023659;28;20046;-40
2021/12/16 03:00:15;;;;;;;1.80;1.33;;;20.50;53.80;;;;;;5023985;28;20081;-40
2021/12/16 03:02:42;;;;;;;2.05;1.23;;;20.60;53.90;;;;;;5022745;28;20033;-39
2021/12/16 03:05:10;;;;;;;2.30;1.33;;;20.60;53.90;;;;;;5023860;28;20046;-39
2021/12/16 03:07:36;;;;;;;1.70;1.20;;;20.60;53.80;;;;;;5023706;28;20041;-39
2021/12/16 03:12:58;;;;;;;2.20;1.50;;;20.50;53.80;;;;;;5023678;28;20041;-39
2021/12/16 03:20:39;;;;;;;1.75;1.25;;;20.50;54.00;;;;;;5023828;28;19909;-39
2021/12/16 03:23:25;;;;;;;1.73;1.30;;;20.60;54.00;;;;;;5016332;28;20038;-41
2021/12/16 03:36:27;;;;;;;2.33;1.70;;;20.50;53.80;;;;;;5023516;28;20056;-39
2021/12/16 03:38:57;;;;;;;2.65;1.42;;;20.40;53.80;;;;;;5022694;28;20280;-39
2021/12/16 03:41:24;;;;;;;2.13;1.58;;;20.50;53.90;;;;;;5023087;28;20018;-41
2021/12/16 03:43:51;;;;;;;1.75;1.58;;;20.60;53.90;;;;;;5022559;28;20037;-39
2021/12/16 03:46:25;;;;;;;2.42;1.60;;;20.60;53.90;;;;;;5005766;28;20056;-39
2021/12/16 03:49:02;;;;;;;1.98;1.25;;;20.60;53.80;;;;;;5022781;28;20792;-39
2021/12/16 03:51:45;;;;;;;1.92;1.45;;;20.50;53.80;;;;;;5016662;28;20022;-39
2021/12/16 03:54:15;;;;;;;1.85;1.45;;;20.50;53.90;;;;;;5020615;28;20036;-40
2021/12/16 03:56:42;;;;;;;2.95;1.65;;;20.40;53.90;;;;;;5022971;28;20088;-40
2021/12/16 03:59:09;;;;;;;2.85;1.60;;;20.40;53.90;;;;;;5022792;28;20054;-39
2021/12/16 04:01:35;;;;;;;2.53;1.50;;;20.50;54.00;;;;;;5022783;28;20583;-39
2021/12/16 04:04:02;;;;;;;2.95;1.70;;;20.60;54.00;;;;;;5022045;28;20097;-40
2021/12/16 04:06:30;;;;;;;1.95;1.65;;;20.60;53.90;;;;;;5022995;28;20030;-39
2021/12/16 04:08:57;;;;;;;2.63;1.60;;;20.60;54.00;;;;;;5021923;28;20060;-40
2021/12/16 04:11:26;;;;;;;1.93;1.53;;;20.60;53.80;;;;;;5022289;28;20065;-39
2021/12/16 04:14:02;;;;;;;2.90;1.60;;;20.50;53.80;;;;;;5022625;28;20329;-39
2021/12/16 04:16:38;;;;;;;2.33;1.50;;;20.50;53.90;;;;;;5022139;28;20034;-39
2021/12/16 04:19:09;;;;;;;2.17;1.60;;;20.40;54.00;;;;;;5021805;28;20041;-38
2021/12/16 04:21:37;;;;;;;2.25;1.67;;;20.40;54.00;;;;;;5022211;28;20064;-39
2021/12/16 04:24:04;;;;;;;2.38;1.50;;;20.50;54.00;;;;;;5021458;28;20115;-40
2021/12/16 04:26:30;;;;;;;1.98;1.50;;;20.60;54.00;;;;;;5021012;28;20135;-39
2021/12/16 04:28:56;;;;;;;2.55;1.60;;;20.60;54.00;;;;;;5021937;28;20026;-39
2021/12/16 04:31:22;;;;;;;3.88;1.92;;;20.60;54.00;;;;;;5013323;28;20068;-39
2021/12/16 04:33:50;;;;;;;2.35;1.75;;;20.60;54.00;;;;;;5022058;28;20030;-39
2021/12/16 04:36:16;;;;;;;2.30;1.70;;;20.60;54.00;;;;;;5022110;28;20029;-39
2021/12/16 04:38:43;;;;;;;2.75;1.80;;;20.50;54.00;;;;;;5022757;28;20030;-40
2021/12/16 04:41:11;;;;;;;2.47;1.80;;;20.50;54.00;;;;;;5022244;28;20022;-39
2021/12/16 04:43:41;;;;;;;2.42;1.77;;;20.50;54.10;;;;;;5021982;28;20069;-40
2021/12/16 04:46:12;;;;;;;2.35;1.70;;;20.50;54.10;;;;;;5021403;28;20053;-40
2021/12/16 04:48:40;;;;;;;2.38;1.70;;;20.60;54.10;;;;;;5022157;28;20105;-40
2021/12/16 04:51:06;;;;;;;2.65;1.88;;;20.60;54.10;;;;;;5001275;28;20019;-41
2021/12/16 04:53:33;;;;;;;2.78;1.70;;;20.60;54.00;;;;;;5010734;28;20057;-39
2021/12/16 04:55:59;;;;;;;2.92;1.83;;;20.60;54.00;;;;;;5022517;28;20056;-39
2021/12/16 04:58:25;;;;;;;2.13;1.80;;;20.50;54.10;;;;;;5017222;28;20046;-39
2021/12/16 05:00:51;;;;;;;3.97;1.95;;;20.50;54.10;;;;;;5020425;28;20045;-39
2021/12/16 05:03:18;;;;;;;2.90;1.85;;;20.50;54.10;;;;;;5020280;28;20053;-39
2021/12/16 05:05:44;;;;;;;2.35;2.15;;;20.50;54.10;;;;;;5021553;28;20034;-39
2021/12/16 05:08:10;;;;;;;2.78;1.90;;;20.60;54.10;;;;;;5024204;28;20100;-39
2021/12/16 05:10:36;;;;;;;3.35;2.10;;;20.60;54.20;;;;;;5024290;28;20022;-39
2021/12/16 05:13:04;;;;;;;2.00;1.60;;;20.60;54.10;;;;;;5024281;28;20117;-39
2021/12/16 05:15:33;;;;;;;2.40;1.63;;;20.60;54.10;;;;;;5023420;28;20026;-39
2021/12/16 05:18:01;;;;;;;3.03;2.03;;;20.50;54.10;;;;;;5023218;28;20050;-39
2021/12/16 05:20:30;;;;;;;2.92;1.92;;;20.50;54.10;;;;;;5023715;28;20030;-41
2021/12/16 05:28:10;;;;;;;2.53;1.88;;;20.70;54.20;;;;;;5024083;28;20034;-40
2021/12/16 05:30:37;;;;;;;2.67;1.80;;;20.70;54.20;;;;;;5022389;28;20054;-39
2021/12/16 05:33:03;;;;;;;2.08;1.73;;;20.70;54.20;;;;;;5022108;28;20026;-40
2021/12/16 05:35:29;;;;;;;2.45;2.08;;;20.60;54.00;;;;;;5022556;28;20498;-39
2021/12/16 05:37:55;;;;;;;3.38;2.47;;;20.60;54.10;;;;;;5005975;28;20033;-39
2021/12/16 05:40:24;;;;;;;2.85;1.95;;;20.60;54.10;;;;;;5023549;28;20055;-42
2021/12/16 05:42:54;;;;;;;2.78;2.10;;;20.70;54.20;;;;;;5023391;28;20022;-42
2021/12/16 05:45:21;;;;;;;3.33;2.30;;;20.70;54.20;;;;;;5021869;28;20037;-39
2021/12/16 05:47:47;;;;;;;4.68;2.30;;;20.80;54.30;;;;;;5023217;28;20068;-40
2021/12/16 05:50:13;;;;;;;3.30;2.13;;;20.70;54.20;;;;;;5022373;28;20093;-39
2021/12/16 05:52:39;;;;;;;4.65;2.25;;;20.70;54.10;;;;;;5021119;28;20022;-39
2021/12/16 05:55:06;;;;;;;3.53;2.30;;;20.60;54.10;;;;;;5022345;28;20053;-39
2021/12/16 05:57:33;;;;;;;3.22;2.38;;;20.60;54.10;;;;;;5004797;28;20093;-40
2021/12/16 05:59:59;;;;;;;3.88;2.38;;;20.70;54.20;;;;;;5022375;28;20053;-41
2021/12/16 06:02:25;;;;;;;3.70;2.08;;;20.80;54.20;;;;;;5023073;28;20049;-39
2021/12/16 06:04:51;;;;;;;2.83;2.05;;;20.80;54.20;;;;;;5022732;28;20028;-39
2021/12/16 06:07:20;;;;;;;2.45;1.92;;;20.80;54.20;;;;;;5022962;28;20041;-39
2021/12/16 06:09:47;;;;;;;3.72;2.20;;;20.80;54.10;;;;;;5022897;28;20089;-39
2021/12/16 06:12:14;;;;;;;4.93;2.17;;;20.70;54.10;;;;;;5022864;28;20462;-41
2021/12/16 06:14:54;;;;;;;2.78;2.10;;;20.70;54.10;;;;;;5021953;28;20034;-41
2021/12/16 06:28:06;;;;;;;3.33;2.28;;;20.80;54.10;;;;;;5022211;28;20092;-41
2021/12/16 06:30:43;;;;;;;3.78;2.38;;;20.80;54.10;;;;;;5018778;28;20045;-39
2021/12/16 06:33:12;;;;;;;2.50;2.07;;;20.70;54.10;;;;;;5019703;28;20026;-39
2021/12/16 06:35:38;;;;;;;2.85;1.95;;;20.80;54.20;;;;;;5022747;28;20260;-39
2021/12/16 06:38:04;;;;;;;1.65;1.23;;;20.90;54.20;;;;;;5019239;28;20541;-39
2021/12/16 06:40:31;;;;;;;2.08;1.88;;;20.90;54.20;;;;;;5022103;28;20026;-39
2021/12/16 06:42:59;;;;;;;2.97;2.30;;;20.90;54.10;;;;;;5021955;28;20033;-39
2021/12/16 06:45:29;;;;;;;3.55;2.13;;;20.80;54.10;;;;;;5003913;28;20215;-40
2021/12/16 06:48:04;;;;;;;2.67;2.28;;;20.80;54.20;;;;;;5021856;28;20037;-39
2021/12/16 06:50:46;;;;;;;2.45;2.00;;;20.80;54.20;;;;;;5021870;28;20743;-39
2021/12/16 06:53:17;;;;;;;2.85;2.00;;;20.80;54.20;;;;;;5022072;28;20033;-39
2021/12/16 06:55:56;;;;;;;2.67;2.00;;;20.90;54.20;;;;;;5020061;28;20407;-39
2021/12/16 06:58:31;;;;;;;2.10;1.90;;;20.90;54.30;;;;;;5021724;28;20139;-39
2021/12/16 07:01:12;;;;;;;3.47;1.98;;;20.90;54.20;;;;;;5021078;28;20030;-39
2021/12/16 07:03:47;;;;;;;3.15;2.25;;;20.90;54.10;;;;;;5021598;28;20052;-39
2021/12/16 07:06:14;;;;;;;2.42;1.98;;;20.80;54.20;;;;;;5021512;28;20025;-39
2021/12/16 07:08:42;;;;;;;2.53;2.00;;;20.80;54.20;;;;;;5021468;28;20133;-39
2021/12/16 07:11:09;;;;;;;2.28;1.83;;;20.90;54.20;;;;;;5021868;28;20030;-39
2021/12/16 07:13:40;;;;;;;2.50;1.85;;;20.90;54.30;;;;;;5021710;28;20034;-39
2021/12/16 07:16:06;;;;;;;2.78;1.85;;;20.90;54.30;;;;;;5020697;28;20022;-39
2021/12/16 07:18:32;;;;;;;4.03;2.28;;;20.90;54.20;;;;;;5019755;28;20046;-39
2021/12/16 07:20:58;;;;;;;3.70;2.25;;;20.90;54.10;;;;;;5021793;28;20026;-39
2021/12/16 07:23:24;;;;;;;2.05;1.77;;;20.80;54.20;;;;;;5020857;28;20080;-39
2021/12/16 07:25:51;;;;;;;3.22;1.80;;;20.80;54.20;;;;;;5021478;28;20026;-41
2021/12/16 07:28:17;;;;;;;2.47;1.83;;;20.90;54.30;;;;;;5001764;28;20030;-40
2021/12/16 07:30:44;;;;;;;3.78;2.00;;;20.90;54.30;;;;;;5020975;28;20025;-39
2021/12/16 07:33:12;;;;;;;2.22;2.00;;;20.90;54.30;;;;;;5021517;28;20038;-40
2021/12/16 07:35:38;;;;;;;3.45;2.03;;;20.90;54.20;;;;;;5021624;28;20064;-41
2021/12/16 07:38:05;;;;;;;2.47;2.10;;;20.90;54.20;;;;;;5020798;28;20046;-39
2021/12/16 07:40:31;;;;;;;2.97;2.20;;;20.90;54.20;;;;;;5020964;28;20053;-39
2021/12/16 07:43:10;;;;;;;2.38;1.75;;;20.80;54.20;;;;;;5021371;28;20060;-40
2021/12/16 07:45:39;;;;;;;2.83;1.98;;;20.90;54.30;;;;;;5021109;28;20060;-40
2021/12/16 07:48:05;;;;;;;2.25;1.90;;;20.90;54.20;;;;;;5021412;28;20053;-40
2021/12/16 07:50:32;;;;;;;3.25;1.90;;;20.90;54.30;;;;;;5018048;28;20026;-39
2021/12/16 07:52:58;;;;;;;3.67;1.98;;;20.90;54.30;;;;;;5020403;28;20045;-39
2021/12/16 07:55:24;;;;;;;2.47;1.95;;;20.90;54.20;;;;;;5020357;28;20541;-39
2021/12/16 07:57:50;;;;;;;2.63;1.80;;;20.80;54.20;;;;;;5019889;28;20041;-40
2021/12/16 08:00:19;;;;;;;2.38;1.92;;;20.80;54.30;;;;;;5020566;28;20038;-39
2021/12/16 08:02:45;;;;;;;2.38;1.80;;;20.80;54.30;;;;;;5018608;28;20165;-40
2021/12/16 08:05:12;;;;;;;2.38;1.85;;;20.90;54.40;;;;;;5020744;28;20498;-40
2021/12/16 08:07:38;;;;;;;2.30;1.90;;;20.90;54.30;;;;;;5020353;28;20045;-39
2021/12/16 08:10:06;;;;;;;2.67;1.97;;;20.90;54.40;;;;;;5020758;28;20025;-41
2021/12/16 08:12:33;;;;;;;2.22;1.77;;;20.90;54.30;;;;;;5017697;28;20061;-39
2021/12/16 08:14:59;;;;;;;2.67;1.85;;;20.90;54.30;;;;;;5017253;28;20026;-40
2021/12/16 08:17:25;;;;;;;4.20;1.83;;;20.80;54.30;;;;;;5019722;28;20042;-42
2021/12/16 08:19:52;;;;;;;2.58;1.77;;;20.80;54.40;;;;;;5020296;28;20030;-42
2021/12/16 08:22:18;;;;;;;2.35;1.75;;;20.90;54.40;;;;;;5020095;28;20037;-40
2021/12/16 08:24:44;;;;;;;2.58;1.98;;;20.90;54.30;;;;;;5020407;28;20060;-40
2021/12/16 08:27:10;;;;;;;3.03;2.00;;;20.90;54.40;;;;;;5020577;28;20026;-41
2021/12/16 08:29:36;;;;;;;2.30;1.73;;;20.90;54.30;;;;;;5019015;28;20054;-39
2021/12/16 08:32:03;;;;;;;2.45;1.80;;;20.90;54.30;;;;;;5020812;28;20121;-39
2021/12/16 08:34:32;;;;;;;2.50;1.90;;;20.90;54.30;;;;;;5020221;28;20061;-39
2021/12/16 08:36:58;;;;;;;4.00;2.20;;;20.80;54.30;;;;;;5020185;28;20410;-39
2021/12/16 08:39:25;;;;;;;2.85;1.73;;;20.80;54.40;;;;;;5020290;28;20042;-39
2021/12/16 08:41:53;;;;;;;2.72;1.67;;;20.90;54.40;;;;;;5024421;28;20030;-39
2021/12/16 08:44:20;;;;;;;1.83;1.58;;;20.90;54.40;;;;;;5024704;28;20072;-39
2021/12/16 08:46:49;;;;;;;2.22;1.70;;;21.00;54.50;;;;;;5024375;28;20462;-39
2021/12/16 08:49:15;;;;;;;2.42;1.75;;;20.90;54.40;;;;;;5023075;28;20036;-39
2021/12/16 08:51:44;;;;;;;2.03;1.80;;;20.90;54.40;;;;;;5023926;28;20522;-39
2021/12/16 08:54:10;;;;;;;2.30;1.90;;;20.90;54.40;;;;;;5022939;28;20030;-40
2021/12/16 08:56:36;;;;;;;2.50;1.90;;;20.80;54.40;;;;;;5023817;28;20033;-39
2021/12/16 08:59:03;;;;;;;2.17;1.60;;;20.80;54.40;;;;;;5023819;28;20046;-39
2021/12/16 09:01:31;;;;;;;1.70;1.60;;;20.90;54.50;;;;;;5023793;28;20120;-39
2021/12/16 09:03:57;;;;;;;2.13;1.50;;;21.00;54.50;;;;;;5023995;28;20038;-41
2021/12/16 09:06:24;;;;;;;1.98;1.60;;;21.00;54.50;;;;;;5023436;28;20018;-42
2021/12/16 09:08:50;;;;;;;2.15;1.80;;;21.00;54.50;;;;;;5024208;28;20064;-39
2021/12/16 09:11:20;;;;;;;2.20;1.80;;;20.90;54.90;;;;;;5023389;28;20746;-39
2021/12/16 09:13:47;;;;;;;2.88;1.65;;;20.90;54.40;;;;;;5024326;28;20263;-39
2021/12/16 09:16:14;;;;;;;2.05;1.67;;;20.80;54.50;;;;;;5023665;28;20026;-40
2021/12/16 09:18:42;;;;;;;2.30;1.55;;;20.90;54.50;;;;;;5024008;28;20052;-41
2021/12/16 09:21:13;;;;;;;2.33;1.60;;;21.00;54.50;;;;;;5023399;28;20446;-39
2021/12/16 09:23:40;;;;;;;2.50;1.77;;;21.00;54.50;;;;;;5022457;28;20099;-41
2021/12/16 09:26:07;;;;;;;1.88;1.45;;;21.00;54.50;;;;;;5023801;28;20030;-39
2021/12/16 09:28:34;;;;;;;3.17;2.08;;;20.90;54.40;;;;;;5023546;28;20030;-41
2021/12/16 09:31:01;;;;;;;1.63;1.53;;;20.90;54.50;;;;;;5023448;28;20032;-39
2021/12/16 09:33:28;;;;;;;2.25;1.63;;;20.80;54.50;;;;;;5023586;28;20054;-39
2021/12/16 09:35:58;;;;;;;2.60;1.60;;;20.90;54.60;;;;;;5024008;28;20034;-39
2021/12/16 09:38:25;;;;;;;1.98;1.65;;;20.90;54.60;;;;;;5023574;28;20045;-39
2021/12/16 09:40:54;;;;;;;2.45;1.60;;;21.00;54.60;;;;;;5022725;28;20037;-39
2021/12/16 09:43:23;;;;;;;2.13;1.55;;;21.00;54.60;;;;;;5023139;28;20522;-41
2021/12/16 09:45:50;;;;;;;2.30;1.70;;;21.00;54.50;;;;;;5022672;28;20089;-39
2021/12/16 09:48:16;;;;;;;1.90;1.55;;;20.90;54.50;;;;;;5022924;28;20034;-40
2021/12/16 09:50:42;;;;;;;2.17;1.73;;;20.90;54.60;;;;;;5022416;28;20030;-39
2021/12/16 09:53:09;;;;;;;2.55;1.90;;;20.80;54.60;;;;;;5022508;28;20034;-39
2021/12/16 09:55:35;;;;;;;1.80;1.57;;;20.80;54.60;;;;;;5020283;28;20038;-41
2021/12/16 09:58:02;;;;;;;2.42;1.60;;;20.90;54.60;;;;;;5023663;28;20745;-39
2021/12/16 10:00:29;;;;;;;2.13;1.50;;;21.00;54.70;;;;;;5024914;28;20584;-39
2021/12/16 10:02:55;;;;;;;2.03;1.40;;;21.00;54.70;;;;;;5024765;28;20060;-40
2021/12/16 10:05:21;;;;;;;2.58;1.50;;;21.00;54.60;;;;;;5024722;28;20041;-39
2021/12/16 10:07:48;;;;;;;2.60;1.80;;;20.90;54.60;;;;;;5024719;28;20034;-42
2021/12/16 10:10:20;;;;;;;1.60;1.38;;;20.90;54.60;;;;;;5024720;28;20033;-39
2021/12/16 10:12:50;;;;;;;2.55;1.90;;;20.90;54.60;;;;;;5024523;28;20026;-40
2021/12/16 10:18:07;;;;;;;2.63;1.48;;;21.00;54.70;;;;;;5024723;28;20798;-39
2021/12/16 10:20:59;;;;;;;1.92;1.60;;;21.00;54.70;;;;;;5024075;28;20022;-39
2021/12/16 10:23:41;;;;;;;1.95;1.60;;;21.00;54.70;;;;;;5010129;28;20038;-39
2021/12/16 10:26:09;;;;;;;1.73;1.40;;;20.90;54.60;;;;;;5021480;28;20030;-40
2021/12/16 10:28:37;;;;;;;1.50;1.40;;;20.90;54.70;;;;;;5024330;28;20068;-40
2021/12/16 10:31:06;;;;;;;1.83;1.42;;;20.80;54.70;;;;;;5016474;28;20086;-39
2021/12/16 10:33:57;;;;;;;1.73;1.40;;;20.90;54.70;;;;;;5019123;28;20033;-40
2021/12/16 10:36:24;;;;;;;1.95;1.40;;;21.00;54.70;;;;;;5010565;28;20042;-38
2021/12/16 10:38:57;;;;;;;1.73;1.23;;;21.00;54.70;;;;;;5021221;28;20176;-39
2021/12/16 10:41:44;;;;;;;2.25;1.50;;;21.00;54.70;;;;;;5022164;28;20041;-38
2021/12/16 10:44:20;;;;;;;1.67;1.17;;;21.00;54.70;;;;;;5020740;28;20022;-38
2021/12/16 10:46:54;;;;;;;2.13;1.45;;;20.90;54.70;;;;;;5022337;28;20030;-38
2021/12/16 10:49:27;;;;;;;1.95;1.67;;;20.90;54.70;;;;;;5022223;28;20026;-38
2021/12/16 10:51:55;;;;;;;1.70;1.40;;;20.90;54.80;;;;;;5020660;28;20026;-39
2021/12/16 10:54:25;;;;;;;1.70;1.40;;;20.90;54.80;;;;;;5020206;28;20030;-39
2021/12/16 10:57:09;;;;;;;1.60;1.30;;;21.00;54.80;;;;;;5022033;28;20034;-38
2021/12/16 10:59:40;;;;;;;1.38;1.20;;;21.00;54.80;;;;;;5021599;28;20049;-39
2021/12/16 11:02:13;;;;;;;1.90;1.38;;;21.00;54.80;;;;;;5020092;28;20057;-39
2021/12/16 11:04:48;;;;;;;2.05;1.30;;;20.90;54.80;;;;;;5021439;28;20030;-38
2021/12/16 11:07:19;;;;;;;2.50;1.80;;;20.90;54.90;;;;;;5021951;28;20042;-39
2021/12/16 11:09:52;;;;;;;1.92;1.50;;;20.90;54.90;;;;;;5021877;28;20033;-39
2021/12/16 11:12:28;;;;;;;1.58;1.40;;;20.90;54.80;;;;;;5022320;28;20482;-39
2021/12/16 11:14:59;;;;;;;2.28;1.48;;;21.00;54.80;;;;;;5021855;28;20065;-39
2021/12/16 11:17:37;;;;;;;1.45;1.35;;;21.00;54.80;;;;;;5021942;28;20048;-39
2021/12/16 11:20:13;;;;;;;1.25;1.15;;;21.00;54.80;;;;;;5018551;28;20124;-39
2021/12/16 11:22:40;;;;;;;1.40;1.30;;;20.90;54.70;;;;;;5016585;28;20053;-41
2021/12/16 11:25:16;;;;;;;1.83;1.55;;;20.90;54.80;;;;;;5021574;28;20080;-38
2021/12/16 11:27:44;;;;;;;2.83;1.50;;;20.80;54.80;;;;;;5019778;28;20797;-39
2021/12/16 11:30:25;;;;;;;1.73;1.30;;;20.90;54.90;;;;;;5019978;28;20057;-39
2021/12/16 11:32:53;;;;;;;2.13;1.70;;;20.90;54.90;;;;;;5021678;28;20592;-39
2021/12/16 11:35:31;;;;;;;1.20;1.10;;;21.00;54.90;;;;;;5021316;28;20018;-39
2021/12/16 11:38:01;;;;;;;1.58;1.35;;;21.00;54.90;;;;;;5021295;28;20045;-38
2021/12/16 11:40:27;;;;;;;2.15;1.40;;;21.00;54.80;;;;;;5020954;28;20034;-39
2021/12/16 11:43:03;;;;;;;2.20;1.40;;;20.90;54.80;;;;;;5021570;28;20084;-38
2021/12/16 11:45:37;;;;;;;1.63;1.50;;;20.90;54.90;;;;;;5020686;28;20053;-38
2021/12/16 11:48:04;;;;;;;1.55;1.40;;;20.90;54.90;;;;;;5021010;28;20108;-39
2021/12/16 11:50:36;;;;;;;1.95;1.40;;;20.90;54.90;;;;;;5020720;28;20037;-42
2021/12/16 11:53:03;;;;;;;2.05;1.35;;;21.00;54.90;;;;;;5020545;28;20041;-39
2021/12/16 11:55:29;;;;;;;1.50;1.40;;;21.00;55.00;;;;;;5020499;28;20033;-39
2021/12/16 11:58:01;;;;;;;1.55;1.25;;;21.00;54.90;;;;;;5003271;28;20592;-39
2021/12/16 12:00:38;;;;;;;1.88;1.42;;;21.00;54.80;;;;;;5021092;28;20037;-39
2021/12/16 12:03:09;;;;;;;1.95;1.48;;;20.90;54.90;;;;;;5020756;28;20096;-39
2021/12/16 12:05:44;;;;;;;2.08;1.40;;;20.90;54.90;;;;;;5001942;28;20026;-38
2021/12/16 12:08:14;;;;;;;1.88;1.58;;;20.90;55.00;;;;;;5020690;28;20034;-39
2021/12/16 12:10:46;;;;;;;1.58;1.48;;;20.90;54.90;;;;;;5020910;28;20116;-40
2021/12/16 12:13:38;;;;;;;1.92;1.40;;;21.00;55.00;;;;;;5020846;28;20375;-39
2021/12/16 12:16:07;;;;;;;1.55;1.27;;;21.00;55.10;;;;;;5008942;28;20060;-39
2021/12/16 12:18:41;;;;;;;1.60;1.33;;;21.00;55.00;;;;;;5009033;28;20038;-40
2021/12/16 12:21:18;;;;;;;1.65;1.42;;;21.00;55.00;;;;;;5020053;28;20022;-39
2021/12/16 12:23:44;;;;;;;2.13;1.60;;;20.90;55.00;;;;;;5018673;28;20365;-42
2021/12/16 12:26:15;;;;;;;1.90;1.60;;;20.90;55.00;;;;;;5018985;28;20030;-38
2021/12/16 12:28:49;;;;;;;2.75;1.60;;;20.80;55.00;;;;;;5019714;28;20046;-40
2021/12/16 12:31:17;;;;;;;1.80;1.60;;;20.90;55.00;;;;;;5017135;28;20029;-38
2021/12/16 12:33:43;;;;;;;1.80;1.30;;;21.00;55.10;;;;;;5020413;28;20038;-40
2021/12/16 12:36:09;;;;;;;1.67;1.42;;;21.00;55.00;;;;;;5020140;28;20026;-40
2021/12/16 12:38:36;;;;;;;2.00;1.60;;;21.00;55.00;;;;;;5020104;28;20038;-39
2021/12/16 12:41:04;;;;;;;2.97;1.50;;;21.00;55.00;;;;;;5018296;28;20498;-38
2021/12/16 12:43:33;;;;;;;1.55;1.33;;;21.00;55.00;;;;;;5020170;28;20029;-38
2021/12/16 12:46:00;;;;;;;1.88;1.42;;;20.90;55.00;;;;;;5020207;28;20041;-38
2021/12/16 12:48:26;;;;;;;;;;;20.90;55.00;;;;;;5020944;28;20065;-39
2021/12/16 12:50:53;;;;;;;2.50;1.48;;;20.90;55.00;;;;;;5020464;28;19909;-41
2021/12/16 12:53:26;;;;;;;2.92;1.35;;;20.90;55.00;;;;;;4993341;28;20038;-42
2021/12/16 12:55:56;;;;;;;3.00;1.60;;;21.00;55.10;;;;;;5020026;28;20048;-39
2021/12/16 12:58:25;;;;;;;1.73;1.45;;;21.00;55.50;;;;;;5019888;28;20062;-39
2021/12/16 13:00:59;;;;;;;2.17;1.55;;;21.00;55.00;;;;;;5020279;28;20084;-39
2021/12/16 13:03:36;;;;;;;1.70;1.40;;;21.00;55.00;;;;;;5020202;28;20033;-40
2021/12/16 13:06:07;;;;;;;2.47;1.70;;;20.90;55.00;;;;;;5019987;28;20026;-39
2021/12/16 13:08:38;;;;;;;2.05;1.83;;;20.90;55.10;;;;;;5020128;28;20041;-39
2021/12/16 13:11:07;;;;;;;1.70;1.27;;;20.90;55.10;;;;;;5020740;28;20030;-39
2021/12/16 13:13:44;;;;;;;1.48;1.20;;;20.90;55.10;;;;;;5020518;28;20022;-39
2021/12/16 13:16:39;;;;;;;2.37;1.80;;;21.00;55.10;;;;;;5016919;28;20026;-44
2021/12/16 13:29:03;;;;;;;1.55;1.45;;;20.90;55.10;;;;;;5009091;28;20049;-40
2021/12/16 13:31:27;;;;;;;2.10;1.58;;;20.90;55.20;;;;;;5011633;28;20030;-39
2021/12/16 13:33:56;;;;;;;1.55;1.40;;;20.90;55.10;;;;;;5022662;28;20045;-39
2021/12/16 13:36:44;;;;;;;2.10;1.30;;;21.00;55.10;;;;;;5023307;28;20049;-38
2021/12/16 13:39:21;;;;;;;1.52;1.40;;;21.00;55.20;;;;;;5023729;28;20029;-41
2021/12/16 13:42:07;;;;;;;1.58;1.48;;;21.00;55.10;;;;;;5023476;28;20033;-41
2021/12/16 13:44:46;;;;;;;1.80;1.38;;;20.90;55.10;;;;;;5023235;28;20041;-38
2021/12/16 14:07:54;;;;;;;2.17;1.85;;;20.90;55.10;;;;;;5022343;28;20029;-41
2021/12/16 14:10:48;;;;;;;1.88;1.58;;;20.90;55.10;;;;;;5022822;28;20029;-39
2021/12/16 14:16:30;;;;;;;2.05;1.60;;;21.00;55.10;;;;;;5018357;28;20034;-39
2021/12/16 14:42:02;;;;;;;1.90;1.60;;;21.00;55.20;;;;;;4942391;29;20106;-39
2021/12/16 14:47:56;;;;;;;1.60;1.25;;;21.00;55.20;;;;;;4943348;29;20035;-40
2021/12/16 14:49:48;;;;;;;2.00;1.70;;;20.90;55.20;;;;;;4920826;29;20130;-42
2021/12/16 14:52:18;;;;;;;1.65;1.40;;;20.90;55.20;;;;;;4941430;29;20087;-40
2021/12/16 14:55:11;;;;;;;1.90;1.58;;;21.00;55.30;;;;;;4942071;29;20525;-40
2021/12/16 14:57:42;;;;;;;2.10;1.58;;;21.00;55.30;;;;;;4935579;29;20109;-41
2021/12/16 15:00:19;;;;;;;1.92;1.65;;;21.10;55.40;;;;;;4941304;29;20533;-39
2021/12/16 15:02:47;;;;;;;2.35;1.90;;;21.00;55.30;;;;;;4941954;29;20091;-40
2021/12/16 15:05:25;;;;;;;2.78;1.90;;;21.00;55.30;;;;;;4941865;29;20038;-39
2021/12/16 15:07:52;;;;;;;2.15;1.42;;;21.00;55.30;;;;;;4941701;29;20058;-41
2021/12/16 15:10:18;;;;;;;2.30;1.40;;;20.90;55.30;;;;;;4941658;29;20123;-39
2021/12/16 15:12:55;;;;;;;2.03;1.65;;;20.90;55.30;;;;;;4971981;28;20483;-39
2021/12/16 15:15:34;;;;;;;2.92;1.80;;;21.00;55.40;;;;;;5021981;28;20050;-39
2021/12/16 15:32:03;;;;;;;1.85;1.30;;;21.00;55.50;;;;;;5020946;28;20098;-40
2021/12/16 15:35:51;;;;;;;2.28;1.45;;;20.90;55.50;;;;;;5021377;28;20046;-39
2021/12/16 15:43:09;;;;;;;2.42;1.80;;;21.10;55.60;;;;;;4941300;29;20142;-39
2021/12/16 15:45:43;;;;;;;1.92;1.60;;;21.10;55.60;;;;;;4940198;29;20063;-40
2021/12/16 15:48:26;;;;;;;1.73;1.35;;;21.10;55.60;;;;;;4940939;29;20047;-39
2021/12/16 15:50:57;;;;;;;2.67;1.80;;;21.10;55.60;;;;;;4939118;29;20035;-41
2021/12/16 15:53:26;;;;;;;3.25;1.65;;;21.00;55.60;;;;;;4939249;29;20043;-40
2021/12/16 15:55:57;;;;;;;1.58;1.48;;;21.00;55.60;;;;;;4940874;29;20110;-39
2021/12/16 15:58:30;;;;;;;2.42;1.67;;;21.00;55.60;;;;;;4941154;29;20550;-39
2021/12/16 16:00:58;;;;;;;2.30;1.75;;;21.00;55.60;;;;;;4942483;29;20050;-39
2021/12/16 16:03:25;;;;;;;1.88;1.58;;;21.10;55.60;;;;;;4943675;29;20032;-39
2021/12/16 16:05:54;;;;;;;1.98;1.77;;;21.10;55.60;;;;;;4941057;29;20039;-39
2021/12/16 16:08:21;;;;;;;1.90;1.70;;;21.20;55.70;;;;;;4941606;29;20036;-41
2021/12/16 16:10:50;;;;;;;1.98;1.75;;;21.10;55.70;;;;;;4940789;29;20035;-39
2021/12/16 16:13:19;;;;;;;1.83;1.30;;;21.10;55.70;;;;;;4944809;28;20067;-39
2021/12/16 16:15:46;;;;;;;2.45;1.50;;;21.10;55.70;;;;;;5020793;28;20036;-40
2021/12/16 16:18:32;;;;;;;2.20;1.42;;;21.10;55.80;;;;;;5020966;28;20068;-39
2021/12/16 16:21:02;;;;;;;2.00;1.55;;;21.00;55.70;;;;;;5019967;28;20038;-39
2021/12/16 16:23:30;;;;;;;2.08;1.65;;;21.00;55.70;;;;;;5019148;28;20029;-38
2021/12/16 16:25:56;;;;;;;2.15;1.70;;;21.00;55.70;;;;;;5020639;28;20041;-39
2021/12/16 16:28:25;;;;;;;2.03;1.80;;;21.00;55.70;;;;;;5000802;28;20029;-39
2021/12/16 16:30:52;;;;;;;2.10;1.70;;;21.00;55.70;;;;;;5019133;28;20045;-40
2021/12/16 16:33:20;;;;;;;2.50;1.85;;;21.00;55.80;;;;;;5020941;28;20045;-40
2021/12/16 16:35:53;;;;;;;2.33;1.70;;;21.00;55.80;;;;;;5019738;28;20133;-39
2021/12/16 16:38:31;;;;;;;1.80;1.45;;;21.10;55.90;;;;;;5020342;28;20073;-39
2021/12/16 16:40:58;;;;;;;1.95;1.42;;;21.10;56.10;;;;;;5020483;28;20101;-39
2021/12/16 16:43:41;;;;;;;;;;;21.10;56.20;;;;;;5020993;28;20137;-39
2021/12/16 16:46:15;;;;;;;1.38;1.20;;;21.10;56.00;;;;;;5019868;28;20429;-39
2021/12/16 16:48:55;;;;;;;2.03;1.45;;;21.10;56.20;;;;;;5018050;28;20034;-41
2021/12/16 16:51:30;;;;;;;1.63;1.38;;;21.10;56.40;;;;;;5020608;28;20038;-38